Terminal Aerodrome Forecast
Issued by NWS Detroit/Pontiac, MI

Home | Current Version | Previous Version | Text Only | Print | Product List | Glossary On
Versions: 1 2 3 4 5 6 7 8 9 10 11 12 13 14 15 16 17 18 19 20 21 22 23 24 25 26 27 28 29
000
FTUS43 KDTX 211501 AAA
TAFDTW
TAF AMD
KDTW 211501Z 2115/2218 17003KT 5SM BR SCT025 OVC050
     FM211600 19004KT P6SM SCT020 BKN040
     FM212200 16005KT P6SM SCT025
      TEMPO 2203/2206 BKN025
     FM220600 14005KT 5SM BR SCT020
     FM221500 14007KT P6SM SCT200=

USA.gov is the U.S. government's official web portal to all federal, state and local government web resources and services.